Cocos Island, Australian Islands

9:27 PM CCT on August 01, 2015 (GMT +0630)
Cocos (Keeling) Island International | | Change Station
CLOSE
Current Station
Airport
Location: Cocos Island,
Elevation: 10 ft
Nearby Weather Stations

Elev 10 ft 12.19 °S, 96.83 °E | Updated 17 minutes ago

Mostly Cloudy
Mostly Cloudy
79 °F
Feels Like 79 °F
N
31
Wind Variable Wind from East

Today
High -- | Low -- °F
--% Chance of Precip.
Yesterday
High -- | Low -- °F
Precip. -- in
6:21 AM 5:56 PM
Full, 98% visible
Pressure 29.98 in
Visibility -9999.0 miles
Clouds Scattered Clouds 2300 ft
Scattered Clouds 2900 ft
Mostly Cloudy 3300 ft
Dew Point 72 °F
Humidity 78%
Rainfall 0.00 in
Snow Depth Not available.
UV 0 out of 12
Pollen Not available.
Air Quality Not available.
Flu Activity Not available.
SPECI YPCC 011440Z AUTO 08027KT //// // SCT023 SCT029 BKN033 26/22 Q1015

More Conditions Fewer Conditions

Pressure 29.98 in
Visibility -9999.0 miles
Clouds Scattered Clouds 2300 ft
Scattered Clouds 2900 ft
Mostly Cloudy 3300 ft
Dew Point 72 °F
Humidity 78%
Rainfall 0.00 in
Snow Depth Not available.
UV 0 out of 12
Pollen Not available.
Air Quality Not available.
Flu Activity Not available.
SPECI YPCC 011440Z AUTO 08027KT //// // SCT023 SCT029 BKN033 26/22 Q1015

More Conditions Fewer Conditions

10-Day Weather Forecast

×

Almanac

Astronomy

Aug. 01, 2015 Rise Set
Actual Time
Civil Twilight
Nautical Twilight
Astronomical Twilight
Moon
Length of Visible Light
Length of Day
Tomorrow will be .
, % of the Moon is Illuminated

Today's Extremes

Country Highs Country Lows

Community

WunderPhotos

Upload Photos

1,842,956 photos uploaded!

WunderBlogs® & News

Nearby

Air Quality

  Air Quality AQ Index Pollutant
Not available.

Snow Depth

Station Depth Elevation

Earthquake Activity

City Distance Mag. Time & Date
Minimum magnitude displayed is 2.5.

Coastal Water Temperatures

Place Temperature

Stations

Nearby Weather Stations

Station Location Temp. Windchill Dew Point Humidity Wind Precip. Elev Updated Type